createdAt,value
2023-03-27T00:00:29.601Z,42.72
2023-03-27T00:01:29.597Z,42.74
2023-03-27T00:02:29.632Z,42.70
2023-03-27T00:03:29.699Z,42.68
2023-03-27T00:04:28.586Z,42.68
2023-03-27T00:05:29.568Z,42.67
2023-03-27T00:06:29.562Z,42.65
2023-03-27T00:07:28.570Z,42.65
2023-03-27T00:08:29.545Z,42.63
2023-03-27T00:09:29.851Z,42.60
2023-03-27T00:10:28.574Z,42.60
2023-03-27T00:11:29.528Z,42.57
2023-03-27T00:12:29.531Z,42.57
2023-03-27T00:13:29.516Z,42.57
2023-03-27T00:14:29.523Z,42.55
2023-03-27T00:15:29.568Z,42.55
2023-03-27T00:16:29.554Z,42.53
2023-03-27T00:17:29.558Z,42.52
2023-03-27T00:18:29.487Z,42.52
2023-03-27T00:19:29.498Z,42.50
2023-03-27T00:20:29.472Z,42.47
2023-03-27T00:21:29.527Z,42.45
2023-03-27T00:22:29.451Z,42.46
2023-03-27T00:23:29.436Z,42.44
2023-03-27T00:24:29.436Z,42.43
2023-03-27T00:25:29.424Z,42.42
2023-03-27T00:26:29.448Z,42.41
2023-03-27T00:27:29.447Z,42.38
2023-03-27T00:28:28.398Z,42.41
2023-03-27T00:29:29.392Z,42.40
2023-03-27T00:30:29.429Z,42.40
2023-03-27T00:31:29.396Z,42.37
2023-03-27T00:32:29.418Z,42.36
2023-03-27T00:33:28.362Z,42.35
2023-03-27T00:34:29.364Z,42.34
2023-03-27T00:35:28.405Z,42.32
2023-03-27T00:36:29.391Z,42.34
2023-03-27T00:37:29.359Z,42.32
2023-03-27T00:38:29.334Z,42.32
2023-03-27T00:39:29.433Z,42.29
2023-03-27T00:40:29.315Z,42.28
2023-03-27T00:41:29.298Z,42.30
2023-03-27T00:42:29.306Z,42.27
2023-03-27T00:43:28.361Z,42.30
2023-03-27T00:44:29.337Z,42.28
2023-03-27T00:45:29.282Z,42.24
2023-03-27T00:46:28.310Z,42.24
2023-03-27T00:47:29.302Z,42.24
2023-03-27T00:48:29.253Z,42.20
2023-03-27T00:49:29.261Z,42.24
2023-03-27T00:50:29.268Z,42.22
2023-03-27T00:51:29.321Z,42.20
2023-03-27T00:52:28.257Z,42.19
2023-03-27T00:53:29.267Z,42.17
2023-03-27T00:54:29.230Z,42.18
2023-03-27T00:55:29.229Z,42.16
2023-03-27T00:56:29.266Z,42.15
2023-03-27T00:57:29.248Z,42.18
2023-03-27T00:58:29.266Z,42.17
2023-03-27T00:59:28.269Z,42.15
2023-03-27T01:00:29.252Z,42.10
2023-03-27T01:01:28.311Z,42.13
2023-03-27T01:02:29.383Z,42.16
2023-03-27T01:03:29.376Z,42.10
2023-03-27T01:04:29.256Z,42.10
2023-03-27T01:05:28.255Z,42.12
2023-03-27T01:06:29.253Z,42.11
2023-03-27T01:07:28.283Z,42.09
2023-03-27T01:08:29.267Z,42.09
2023-03-27T01:09:29.270Z,42.09
2023-03-27T01:10:29.285Z,42.07
2023-03-27T01:11:29.278Z,42.06
2023-03-27T01:12:29.281Z,42.06
2023-03-27T01:13:28.342Z,42.07
2023-03-27T01:14:29.284Z,42.05
2023-03-27T01:15:29.366Z,42.03
2023-03-27T01:16:29.291Z,42.06
2023-03-27T01:17:29.291Z,42.04
2023-03-27T01:18:29.306Z,42.02
2023-03-27T01:19:29.287Z,42.02
2023-03-27T01:20:29.385Z,42.01
2023-03-27T01:21:29.357Z,42.02
2023-03-27T01:22:29.308Z,41.97
2023-03-27T01:23:36.069Z,41.99
2023-03-27T01:24:29.302Z,42.02
2023-03-27T01:25:29.288Z,42.00
2023-03-27T01:26:36.187Z,42.00
2023-03-27T01:27:29.325Z,42.00
2023-03-27T01:28:29.298Z,42.02
2023-03-27T01:29:29.338Z,42.00
2023-03-27T01:30:29.296Z,42.00
2023-03-27T01:31:29.330Z,41.99
2023-03-27T01:32:29.298Z,41.96
2023-03-27T01:33:29.280Z,41.95
2023-03-27T01:34:29.232Z,41.96
2023-03-27T01:35:29.302Z,41.96
2023-03-27T01:36:29.227Z,41.97
2023-03-27T01:37:29.195Z,41.94
2023-03-27T01:38:29.224Z,41.96
2023-03-27T01:39:28.220Z,41.96
2023-03-27T01:40:29.211Z,41.97
2023-03-27T01:41:29.194Z,41.94
2023-03-27T01:42:29.180Z,41.95
2023-03-27T01:43:29.195Z,41.94
2023-03-27T01:44:43.353Z,41.94
2023-03-27T01:45:29.165Z,41.98
2023-03-27T01:46:29.202Z,41.96
2023-03-27T01:47:29.153Z,41.98
2023-03-27T01:48:29.134Z,41.95
2023-03-27T01:49:29.133Z,41.95
2023-03-27T01:50:29.130Z,41.96
2023-03-27T01:51:28.121Z,41.94
2023-03-27T01:52:29.108Z,41.94
2023-03-27T01:53:29.100Z,41.97
2023-03-27T01:54:28.105Z,41.94
2023-03-27T01:55:29.109Z,41.94
2023-03-27T01:56:28.069Z,41.95
2023-03-27T01:57:29.111Z,41.92
2023-03-27T01:58:29.094Z,41.95
2023-03-27T01:59:29.068Z,41.94
2023-03-27T02:00:50.646Z,41.94
2023-03-27T02:01:29.063Z,41.95
2023-03-27T02:02:29.101Z,41.96
2023-03-27T02:03:28.038Z,41.94
2023-03-27T02:04:29.094Z,41.94
2023-03-27T02:05:28.018Z,41.93
2023-03-27T02:06:29.013Z,41.94
2023-03-27T02:07:29.005Z,42.00
2023-03-27T02:08:29.004Z,41.91
2023-03-27T02:09:28.996Z,41.93
2023-03-27T02:10:28.977Z,41.94
2023-03-27T02:11:28.022Z,41.94
2023-03-27T02:12:28.999Z,41.91
2023-03-27T02:13:28.980Z,41.97
2023-03-27T02:14:27.967Z,41.91
2023-03-27T02:15:27.997Z,41.92
2023-03-27T02:16:28.017Z,41.91
2023-03-27T02:17:28.960Z,41.92
2023-03-27T02:18:28.923Z,41.93
2023-03-27T02:19:28.927Z,41.93
2023-03-27T02:20:28.938Z,41.92
2023-03-27T02:21:28.914Z,41.90
2023-03-27T02:22:37.751Z,41.91
2023-03-27T02:23:29.009Z,41.94
2023-03-27T02:24:28.947Z,41.94
2023-03-27T02:25:28.882Z,41.93
2023-03-27T02:26:28.885Z,41.91
2023-03-27T02:27:28.923Z,41.92
2023-03-27T02:28:28.887Z,41.92
2023-03-27T02:29:28.896Z,41.89
2023-03-27T02:30:28.900Z,41.88
2023-03-27T02:31:32.497Z,41.87
2023-03-27T02:32:28.908Z,41.91
2023-03-27T02:33:28.829Z,41.90
2023-03-27T02:34:28.938Z,41.87
2023-03-27T02:35:27.870Z,41.84
2023-03-27T02:36:28.868Z,41.85
2023-03-27T02:37:32.571Z,41.85
2023-03-27T02:38:28.825Z,41.85
2023-03-27T02:39:27.825Z,41.90
2023-03-27T02:40:28.900Z,41.85
2023-03-27T02:41:28.910Z,41.84
2023-03-27T02:42:28.943Z,41.83
2023-03-27T02:43:29.007Z,41.82
2023-03-27T02:44:28.971Z,41.83
2023-03-27T02:45:29.038Z,41.83
2023-03-27T02:46:29.085Z,41.82
2023-03-27T02:47:29.052Z,41.82
2023-03-27T02:48:27.905Z,41.81
2023-03-27T02:49:27.966Z,41.81
2023-03-27T02:50:28.941Z,41.80
2023-03-27T02:51:28.927Z,41.81
2023-03-27T02:52:27.911Z,41.80
2023-03-27T02:53:28.940Z,41.83
2023-03-27T02:54:28.943Z,41.80
2023-03-27T02:55:28.972Z,41.82
2023-03-27T02:56:27.934Z,41.80
2023-03-27T02:57:28.933Z,41.81
2023-03-27T02:58:28.928Z,41.81
2023-03-27T02:59:29.077Z,41.78
2023-03-27T03:00:27.962Z,41.80
2023-03-27T03:01:28.999Z,41.79
2023-03-27T03:02:28.976Z,41.81
2023-03-27T03:03:28.127Z,41.78
2023-03-27T03:04:27.986Z,41.80
2023-03-27T03:05:27.910Z,41.78
2023-03-27T03:06:28.957Z,41.78
2023-03-27T03:07:28.901Z,41.77
2023-03-27T03:08:28.946Z,41.79
2023-03-27T03:09:28.905Z,41.81
2023-03-27T03:10:28.909Z,41.79
2023-03-27T03:11:28.899Z,41.80
2023-03-27T03:12:29.007Z,41.79
2023-03-27T03:13:28.925Z,41.78
2023-03-27T03:14:28.919Z,41.80
2023-03-27T03:15:28.980Z,41.78
2023-03-27T03:16:27.923Z,41.79
2023-03-27T03:17:28.952Z,41.82
2023-03-27T03:18:29.019Z,41.79
2023-03-27T03:19:28.974Z,41.80
2023-03-27T03:20:29.051Z,41.78
2023-03-27T03:21:28.984Z,41.80
2023-03-27T03:22:28.928Z,41.78
2023-03-27T03:23:28.988Z,41.76
2023-03-27T03:24:29.063Z,41.79
2023-03-27T03:25:28.976Z,41.77
2023-03-27T03:26:29.012Z,41.79
2023-03-27T03:27:29.050Z,41.77
2023-03-27T03:28:28.971Z,41.78
2023-03-27T03:29:29.000Z,41.77
2023-03-27T03:30:29.062Z,41.79
2023-03-27T03:31:29.110Z,41.78
2023-03-27T03:32:29.051Z,41.79
2023-03-27T03:33:28.042Z,41.75
2023-03-27T03:34:29.015Z,41.77
2023-03-27T03:35:29.136Z,41.79
2023-03-27T03:36:27.994Z,41.77
2023-03-27T03:37:29.003Z,41.76
2023-03-27T03:38:28.969Z,41.78
2023-03-27T03:39:29.029Z,41.78
2023-03-27T03:40:27.972Z,41.75
2023-03-27T03:41:28.952Z,41.75
2023-03-27T03:42:28.957Z,41.77
2023-03-27T03:43:28.960Z,41.74
2023-03-27T03:44:28.972Z,41.76
2023-03-27T03:45:28.996Z,41.74
2023-03-27T03:46:29.042Z,41.73
2023-03-27T03:47:28.026Z,41.75
2023-03-27T03:48:28.957Z,41.73
2023-03-27T03:49:29.022Z,41.72
2023-03-27T03:50:28.970Z,41.76
2023-03-27T03:51:28.982Z,41.75
2023-03-27T03:52:28.968Z,41.75
2023-03-27T03:53:28.968Z,41.73
2023-03-27T03:54:28.006Z,41.75
2023-03-27T03:55:28.969Z,41.74
2023-03-27T03:56:28.957Z,41.74
2023-03-27T03:57:28.944Z,41.74
2023-03-27T03:58:34.183Z,41.73
2023-03-27T03:59:28.952Z,41.71
2023-03-27T04:00:28.943Z,41.72
2023-03-27T04:01:29.027Z,41.72
2023-03-27T04:02:29.087Z,41.74
2023-03-27T04:03:27.978Z,41.70
2023-03-27T04:04:28.894Z,41.72
2023-03-27T04:05:28.929Z,41.75
2023-03-27T04:06:28.892Z,41.72
2023-03-27T04:07:28.875Z,41.73
2023-03-27T04:08:28.919Z,41.72
2023-03-27T04:09:28.851Z,41.72
2023-03-27T04:10:28.860Z,41.71
2023-03-27T04:11:28.834Z,41.69
2023-03-27T04:12:28.841Z,41.71
2023-03-27T04:13:28.832Z,41.71
2023-03-27T04:14:28.813Z,41.73
2023-03-27T04:15:28.817Z,41.71
2023-03-27T04:16:28.852Z,41.71
2023-03-27T04:17:28.850Z,41.72
2023-03-27T04:18:28.862Z,41.72
2023-03-27T04:19:28.808Z,41.73
2023-03-27T04:20:28.838Z,41.70
2023-03-27T04:21:28.777Z,41.74
2023-03-27T04:22:28.786Z,41.71
2023-03-27T04:23:28.760Z,41.72
2023-03-27T04:24:28.734Z,41.71
2023-03-27T04:25:28.733Z,41.72
2023-03-27T04:26:28.776Z,41.72
2023-03-27T04:27:28.716Z,41.72
2023-03-27T04:28:28.811Z,41.72
2023-03-27T04:29:28.731Z,41.68
2023-03-27T04:30:28.703Z,41.71
2023-03-27T04:31:28.768Z,41.70
2023-03-27T04:32:28.718Z,41.70
2023-03-27T04:33:30.681Z,41.73
2023-03-27T04:34:28.699Z,41.72
2023-03-27T04:35:28.824Z,41.73
2023-03-27T04:36:30.693Z,41.72
2023-03-27T04:37:28.673Z,41.73
2023-03-27T04:38:28.645Z,41.73
2023-03-27T04:39:28.691Z,41.69
2023-03-27T04:40:28.639Z,41.69
2023-03-27T04:41:28.647Z,41.70
2023-03-27T04:42:28.617Z,41.70
2023-03-27T04:43:27.625Z,41.70
2023-03-27T04:44:28.635Z,41.70
2023-03-27T04:45:29.190Z,41.69
2023-03-27T04:46:28.662Z,41.69
2023-03-27T04:47:28.652Z,41.72
2023-03-27T04:48:28.586Z,41.67
2023-03-27T04:49:28.586Z,41.66
2023-03-27T04:50:28.585Z,41.68
2023-03-27T04:51:28.593Z,41.65
2023-03-27T04:52:28.624Z,41.67
2023-03-27T04:53:27.552Z,41.66
2023-03-27T04:54:28.541Z,41.67
2023-03-27T04:55:28.543Z,41.68
2023-03-27T04:56:28.553Z,41.66
2023-03-27T04:57:28.548Z,41.67
2023-03-27T04:58:28.558Z,41.66
2023-03-27T04:59:27.516Z,41.65
2023-03-27T05:00:28.510Z,41.63
2023-03-27T05:01:27.540Z,41.64
2023-03-27T05:02:28.516Z,41.66
2023-03-27T05:07:27.501Z,41.62
2023-03-27T05:08:28.488Z,41.61
2023-03-27T05:10:27.458Z,41.62
2023-03-27T05:11:28.418Z,41.62
2023-03-27T05:12:28.436Z,41.63
2023-03-27T05:13:28.505Z,41.63
2023-03-27T05:17:27.406Z,41.62
2023-03-27T05:18:28.357Z,41.63
2023-03-27T05:19:28.362Z,41.64
2023-03-27T05:20:28.378Z,41.61
2023-03-27T05:23:27.405Z,41.62
2023-03-27T05:25:34.289Z,41.59
2023-03-27T05:26:28.314Z,41.69
2023-03-27T05:27:28.326Z,41.69
2023-03-27T05:31:27.360Z,41.85
2023-03-27T05:32:28.275Z,41.85
2023-03-27T05:33:28.247Z,41.86
2023-03-27T05:34:28.281Z,41.92
2023-03-27T05:35:28.632Z,41.82
2023-03-27T05:36:28.224Z,41.95
2023-03-27T05:40:27.213Z,42.37
2023-03-27T05:41:28.208Z,42.31
2023-03-27T05:42:28.216Z,42.48
2023-03-27T05:49:04.573Z,43.61
2023-03-27T05:50:05.555Z,43.84
2023-03-27T05:51:05.562Z,43.85
2023-03-27T05:52:05.550Z,43.89
2023-03-27T05:53:05.542Z,43.86
2023-03-27T05:54:05.555Z,44.14
2023-03-27T05:55:05.549Z,44.70
2023-03-27T05:57:04.574Z,44.97
2023-03-27T05:58:04.512Z,45.18
2023-03-27T05:59:05.496Z,45.32
2023-03-27T06:02:04.525Z,46.73
2023-03-27T06:03:05.541Z,46.56
2023-03-27T06:04:05.582Z,46.91
2023-03-27T06:08:04.440Z,47.26
2023-03-27T06:09:05.426Z,47.29
2023-03-27T06:11:04.657Z,46.88
2023-03-27T06:12:05.400Z,46.94
2023-03-27T06:16:04.389Z,47.21
2023-03-27T06:17:05.433Z,47.38
2023-03-27T06:18:04.546Z,47.58
2023-03-27T06:21:04.348Z,47.74
2023-03-27T06:22:05.491Z,47.69
2023-03-27T06:24:04.498Z,47.87
2023-03-27T06:25:04.543Z,47.80
2023-03-27T06:27:04.364Z,48.03
2023-03-27T06:31:04.337Z,48.22
2023-03-27T06:32:05.374Z,48.47
2023-03-27T06:33:04.460Z,48.57
2023-03-27T06:34:04.482Z,48.65
2023-03-27T06:35:05.533Z,48.71
2023-03-27T06:36:05.654Z,48.86
2023-03-27T06:38:04.677Z,48.99
2023-03-27T06:39:05.737Z,49.12
2023-03-27T06:40:05.790Z,49.03
2023-03-27T06:44:05.046Z,49.54
2023-03-27T06:45:06.101Z,49.54
2023-03-27T06:46:06.342Z,49.50
2023-03-27T06:47:06.279Z,50.01
2023-03-27T06:50:05.460Z,49.62
2023-03-27T06:51:06.446Z,49.58
2023-03-27T06:52:06.482Z,49.57
2023-03-27T06:53:13.042Z,49.53
2023-03-27T06:54:06.508Z,49.60
2023-03-27T06:55:05.507Z,49.72
2023-03-27T06:56:06.792Z,49.97
2023-03-27T07:01:05.468Z,49.13
2023-03-27T07:02:05.507Z,48.77
2023-03-27T07:03:06.470Z,48.86
2023-03-27T07:06:05.450Z,48.50
2023-03-27T07:07:06.417Z,48.55
2023-03-27T07:10:05.382Z,48.40
2023-03-27T07:11:11.633Z,48.44
2023-03-27T07:15:05.408Z,48.57
2023-03-27T07:16:06.396Z,48.99
2023-03-27T07:18:05.345Z,48.85
2023-03-27T07:19:05.348Z,48.75
2023-03-27T07:23:05.293Z,48.89
2023-03-27T07:24:06.293Z,48.87
2023-03-27T07:25:06.299Z,49.06
2023-03-27T07:26:06.306Z,49.06
2023-03-27T07:29:05.372Z,49.30
2023-03-27T07:30:06.251Z,49.29
2023-03-27T07:31:10.490Z,49.29
2023-03-27T07:32:09.140Z,49.47
2023-03-27T07:34:05.345Z,49.49
2023-03-27T07:35:05.222Z,49.59
2023-03-27T07:36:06.252Z,49.88
2023-03-27T07:41:05.160Z,49.85
2023-03-27T07:42:06.175Z,49.90
2023-03-27T07:44:05.146Z,49.96
2023-03-27T07:45:06.151Z,50.05
2023-03-27T07:46:06.257Z,50.05
2023-03-27T07:48:05.222Z,50.15
2023-03-27T07:49:06.135Z,49.99
2023-03-27T07:51:13.389Z,50.09
2023-03-27T07:52:06.309Z,50.22
2023-03-27T07:54:05.113Z,50.23
2023-03-27T07:55:06.092Z,50.25
2023-03-27T07:57:05.223Z,50.18
2023-03-27T07:58:06.116Z,50.19
2023-03-27T07:59:06.060Z,50.18
2023-03-27T08:00:06.042Z,50.15
2023-03-27T08:05:05.190Z,50.18
2023-03-27T08:06:06.014Z,50.24
2023-03-27T08:08:05.009Z,50.12
2023-03-27T08:09:05.992Z,50.21
2023-03-27T08:10:05.969Z,50.17
2023-03-27T08:14:04.959Z,50.04
2023-03-27T08:15:05.964Z,50.10
2023-03-27T08:16:05.975Z,50.01
2023-03-27T08:17:15.692Z,49.94
2023-03-27T08:20:04.980Z,49.99
2023-03-27T08:21:05.967Z,49.97
2023-03-27T08:22:04.963Z,50.00
2023-03-27T08:23:05.944Z,49.85
2023-03-27T08:27:04.938Z,49.74
2023-03-27T08:28:05.910Z,49.85
2023-03-27T08:30:04.899Z,49.79
2023-03-27T08:31:05.936Z,49.80
2023-03-27T08:32:08.889Z,49.79
2023-03-27T08:34:04.863Z,49.70
2023-03-27T08:36:04.882Z,49.67
2023-03-27T08:37:05.840Z,49.60
2023-03-27T08:38:11.245Z,49.61
2023-03-27T08:43:04.807Z,49.46
2023-03-27T08:44:05.781Z,49.32
2023-03-27T08:45:05.784Z,49.25
2023-03-27T08:46:05.858Z,49.24
2023-03-27T08:49:04.758Z,49.43
2023-03-27T08:50:05.744Z,49.52
2023-03-27T08:51:05.762Z,47.26
2023-03-27T08:52:05.725Z,41.67
2023-03-27T08:54:04.722Z,41.28
2023-03-27T08:55:05.725Z,40.16
2023-03-27T09:01:04.672Z,45.74
2023-03-27T09:02:06.124Z,45.70
2023-03-27T09:07:04.728Z,45.72
2023-03-27T09:08:05.625Z,45.75
2023-03-27T09:09:04.621Z,45.75
2023-03-27T09:10:04.630Z,45.77
2023-03-27T09:11:05.602Z,45.74
2023-03-27T09:12:05.610Z,45.71
2023-03-27T09:13:05.629Z,45.66
2023-03-27T09:14:05.647Z,45.59
2023-03-27T09:15:05.686Z,45.56
2023-03-27T09:16:05.730Z,45.57
2023-03-27T09:17:05.710Z,45.48
2023-03-27T09:18:05.781Z,45.40
2023-03-27T09:19:05.746Z,45.34
2023-03-27T09:20:05.763Z,45.29
2023-03-27T09:24:04.804Z,45.16
2023-03-27T09:25:05.802Z,45.09
2023-03-27T09:26:05.804Z,45.15
2023-03-27T09:27:07.470Z,45.06
2023-03-27T09:30:06.299Z,45.29
2023-03-27T09:33:04.835Z,45.48
2023-03-27T09:34:05.754Z,45.49
2023-03-27T09:35:05.735Z,45.54
2023-03-27T09:36:05.778Z,45.63
2023-03-27T09:37:05.749Z,45.78
2023-03-27T09:41:04.703Z,46.04
2023-03-27T09:42:06.752Z,46.07
2023-03-27T09:43:05.707Z,46.19
2023-03-27T09:45:04.684Z,46.40
2023-03-27T09:46:05.670Z,46.64
2023-03-27T09:47:05.728Z,46.81
2023-03-27T09:49:04.670Z,46.87
2023-03-27T09:51:04.625Z,46.98
2023-03-27T09:52:04.636Z,47.12
2023-03-27T09:53:05.845Z,47.58
2023-03-27T09:56:04.605Z,48.00
2023-03-27T09:59:04.573Z,48.26
2023-03-27T10:00:05.557Z,48.23
2023-03-27T10:03:04.610Z,48.54
2023-03-27T10:04:05.583Z,48.44
2023-03-27T10:06:04.524Z,48.52
2023-03-27T10:07:05.619Z,48.66
2023-03-27T10:09:04.511Z,48.71
2023-03-27T10:11:04.516Z,48.92
2023-03-27T10:12:05.484Z,49.06
2023-03-27T10:13:05.483Z,49.10
2023-03-27T10:14:05.494Z,49.18
2023-03-27T10:16:04.494Z,49.45
2023-03-27T10:17:04.489Z,49.60
2023-03-27T10:18:05.485Z,49.61
2023-03-27T10:21:04.435Z,49.83
2023-03-27T10:22:05.430Z,49.89
2023-03-27T10:24:04.406Z,50.15
2023-03-27T10:25:04.422Z,50.27
2023-03-27T10:26:05.414Z,50.31
2023-03-27T10:27:05.431Z,50.44
2023-03-27T10:29:04.363Z,50.65
2023-03-27T10:30:05.364Z,50.89
2023-03-27T10:32:04.427Z,50.85
2023-03-27T10:33:05.466Z,50.96
2023-03-27T10:35:04.375Z,50.97
2023-03-27T10:36:05.352Z,51.11
2023-03-27T10:37:05.346Z,51.11
2023-03-27T10:41:04.276Z,51.41
2023-03-27T10:42:05.285Z,51.78
2023-03-27T10:43:05.393Z,51.54
2023-03-27T10:46:04.301Z,51.82
2023-03-27T10:47:05.280Z,51.72
2023-03-27T10:49:04.249Z,47.44
2023-03-27T10:51:04.242Z,42.35
2023-03-27T10:52:05.209Z,49.45
2023-03-27T10:53:05.234Z,48.90
2023-03-27T10:57:04.265Z,47.61
2023-03-27T10:58:05.182Z,47.48
2023-03-27T10:59:05.176Z,47.12
2023-03-27T11:03:04.209Z,46.32
2023-03-27T11:04:05.305Z,46.24
2023-03-27T11:05:05.296Z,46.24
2023-03-27T11:06:05.331Z,46.14
2023-03-27T11:07:05.395Z,46.26
2023-03-27T11:08:05.412Z,46.23
2023-03-27T11:09:05.404Z,46.32
2023-03-27T11:10:05.432Z,46.43
2023-03-27T11:14:04.540Z,46.86
2023-03-27T11:15:04.553Z,46.96
2023-03-27T11:16:04.556Z,47.08
2023-03-27T11:17:04.679Z,47.18
2023-03-27T11:18:05.630Z,47.33
2023-03-27T11:19:05.600Z,47.39
2023-03-27T11:20:05.620Z,47.44
2023-03-27T11:22:04.610Z,47.62
2023-03-27T11:23:04.630Z,47.71
2023-03-27T11:24:05.640Z,47.78
2023-03-27T11:25:05.629Z,47.90
2023-03-27T11:28:04.663Z,48.12
2023-03-27T11:29:05.679Z,48.19
2023-03-27T11:30:05.688Z,48.42
2023-03-27T11:31:11.670Z,48.45
2023-03-27T11:34:04.661Z,48.76
2023-03-27T11:35:05.655Z,48.91
2023-03-27T11:36:05.709Z,49.04
2023-03-27T11:37:05.649Z,49.29
2023-03-27T11:38:05.889Z,49.41
2023-03-27T11:39:05.629Z,49.27
2023-03-27T11:42:04.617Z,49.28
2023-03-27T11:43:05.631Z,49.42
2023-03-27T11:44:05.594Z,49.51
2023-03-27T11:45:05.604Z,49.64
2023-03-27T11:46:05.624Z,49.72
2023-03-27T11:48:04.594Z,49.73
2023-03-27T11:49:05.581Z,49.88
2023-03-27T11:51:04.547Z,49.93
2023-03-27T11:52:04.562Z,49.94
2023-03-27T11:53:04.556Z,49.97
2023-03-27T11:54:04.562Z,50.05
2023-03-27T11:57:04.559Z,50.06
2023-03-27T11:58:04.518Z,50.04
2023-03-27T11:59:05.519Z,50.10
2023-03-27T12:01:04.498Z,49.89
2023-03-27T12:02:05.519Z,50.01
2023-03-27T12:04:04.577Z,50.01
2023-03-27T12:05:05.456Z,50.09
2023-03-27T12:07:05.296Z,50.23
2023-03-27T12:08:04.461Z,50.22
2023-03-27T12:10:04.425Z,50.43
2023-03-27T12:11:05.455Z,50.39
2023-03-27T12:12:05.460Z,50.34
2023-03-27T12:13:05.485Z,50.39
2023-03-27T12:15:04.503Z,50.41
2023-03-27T12:16:05.543Z,50.32
2023-03-27T12:17:05.530Z,50.35
2023-03-27T12:18:05.629Z,50.33
2023-03-27T12:19:10.991Z,50.60
2023-03-27T12:20:05.551Z,50.61
2023-03-27T12:21:05.541Z,51.08
2023-03-27T12:22:20.764Z,50.95
2023-03-27T12:23:05.548Z,50.69
2023-03-27T12:24:05.523Z,50.52
2023-03-27T12:27:04.515Z,50.43
2023-03-27T12:28:05.497Z,50.49
2023-03-27T12:29:23.708Z,50.47
2023-03-27T12:30:05.468Z,50.43
2023-03-27T12:31:05.504Z,50.32
2023-03-27T12:33:04.486Z,50.17
2023-03-27T12:34:05.459Z,50.18
2023-03-27T12:35:05.472Z,49.96
2023-03-27T12:36:04.453Z,49.89
2023-03-27T12:37:05.412Z,49.83
2023-03-27T12:38:05.461Z,49.88
2023-03-27T12:40:04.406Z,49.71
2023-03-27T12:41:05.410Z,49.60
2023-03-27T12:42:05.449Z,49.74
2023-03-27T12:46:04.520Z,49.54
2023-03-27T12:47:06.606Z,49.51
2023-03-27T14:18:34.747Z,50.12
2023-03-27T14:19:35.763Z,49.97
2023-03-27T14:21:38.813Z,49.35
2023-03-27T14:22:35.697Z,49.09
2023-03-27T14:23:34.692Z,48.75
2023-03-27T14:24:35.674Z,48.22
2023-03-27T14:25:35.684Z,47.70
2023-03-27T14:26:35.689Z,47.45
2023-03-27T14:28:34.720Z,47.17
2023-03-27T14:29:35.653Z,47.16
2023-03-27T14:31:34.663Z,46.83
2023-03-27T14:32:35.686Z,46.77
2023-03-27T14:33:35.648Z,46.64
2023-03-27T14:34:47.133Z,46.52
2023-03-27T14:35:35.657Z,46.50
2023-03-27T14:38:34.587Z,46.11
2023-03-27T14:39:34.574Z,45.94
2023-03-27T14:40:35.599Z,45.99
2023-03-27T14:41:35.579Z,45.98
2023-03-27T14:43:34.558Z,46.00
2023-03-27T14:44:35.550Z,45.98
2023-03-27T14:45:35.638Z,45.83
2023-03-27T14:46:35.579Z,45.80
2023-03-27T14:47:35.541Z,45.81
2023-03-27T14:48:35.514Z,45.68
2023-03-27T14:49:35.517Z,45.53
2023-03-27T14:51:34.500Z,45.46
2023-03-27T14:52:35.478Z,45.49
2023-03-27T14:53:35.477Z,45.47
2023-03-27T14:54:48.426Z,45.56
2023-03-27T14:55:35.462Z,45.68
2023-03-27T14:57:34.452Z,45.82
2023-03-27T14:58:35.430Z,45.86
2023-03-27T14:59:35.430Z,45.82
2023-03-27T15:01:34.428Z,45.92
2023-03-27T15:03:34.430Z,45.93
2023-03-27T15:04:35.384Z,45.95
2023-03-27T15:05:35.418Z,45.99
2023-03-27T15:06:34.382Z,46.00
2023-03-27T15:07:35.364Z,45.99
2023-03-27T15:08:35.354Z,46.01
2023-03-27T15:11:34.334Z,46.07
2023-03-27T15:12:35.337Z,46.18
2023-03-27T15:13:35.332Z,46.06
2023-03-27T15:14:35.336Z,46.04
2023-03-27T15:15:35.326Z,46.12
2023-03-27T15:18:34.290Z,46.18
2023-03-27T15:19:35.299Z,46.18
2023-03-27T15:22:34.388Z,46.51
2023-03-27T15:23:35.419Z,46.48
2023-03-27T15:24:34.446Z,46.76
2023-03-27T15:25:35.494Z,46.83
2023-03-27T15:26:35.482Z,47.05
2023-03-27T15:28:34.522Z,47.19
2023-03-27T15:29:35.531Z,47.20
2023-03-27T15:31:53.639Z,47.42
2023-03-27T15:32:54.635Z,47.42
2023-03-27T15:33:54.564Z,47.48
2023-03-27T15:34:54.530Z,47.52
2023-03-27T15:35:54.750Z,47.58
2023-03-27T15:36:54.550Z,47.65
2023-03-27T15:37:53.526Z,47.67
2023-03-27T15:38:53.528Z,47.73
2023-03-27T15:39:54.496Z,47.80
2023-03-27T15:40:54.538Z,47.81
2023-03-27T15:41:54.496Z,47.82
2023-03-27T15:42:54.491Z,47.87
2023-03-27T15:43:54.485Z,47.90
2023-03-27T15:44:54.467Z,47.95
2023-03-27T15:45:54.525Z,48.02
2023-03-27T15:46:54.552Z,47.98
2023-03-27T15:47:54.474Z,47.99
2023-03-27T15:48:54.432Z,48.04
2023-03-27T15:49:53.431Z,48.03
2023-03-27T15:50:54.431Z,48.05
2023-03-27T15:51:54.424Z,48.01
2023-03-27T15:52:54.426Z,48.02
2023-03-27T15:53:53.412Z,47.98
2023-03-27T15:54:54.384Z,48.02
2023-03-27T15:55:54.457Z,48.08
2023-03-27T15:56:53.448Z,48.08
2023-03-27T15:57:54.381Z,48.06
2023-03-27T15:58:54.380Z,48.09
2023-03-27T15:59:54.355Z,48.09
2023-03-27T16:00:54.396Z,48.10
2023-03-27T16:01:54.360Z,48.04
2023-03-27T16:02:53.393Z,48.11
2023-03-27T16:03:54.780Z,48.10
2023-03-27T16:04:53.437Z,48.12
2023-03-27T16:05:54.352Z,48.14
2023-03-27T16:06:54.323Z,48.13
2023-03-27T16:07:54.322Z,48.12
2023-03-27T16:08:53.601Z,48.15
2023-03-27T16:09:54.279Z,48.14
2023-03-27T16:10:54.296Z,48.18
2023-03-27T16:11:54.316Z,48.16
2023-03-27T16:12:54.265Z,48.17
2023-03-27T16:13:54.274Z,48.17
2023-03-27T16:14:54.261Z,48.21
2023-03-27T16:15:54.389Z,48.18
2023-03-27T16:16:54.233Z,48.15
2023-03-27T16:17:54.316Z,48.17
2023-03-27T16:18:54.216Z,48.14
2023-03-27T16:19:54.246Z,48.17
2023-03-27T16:20:54.227Z,48.20
2023-03-27T16:21:54.208Z,48.15
2023-03-27T16:22:54.189Z,48.16
2023-03-27T16:23:54.179Z,48.18
2023-03-27T16:24:54.220Z,48.16
2023-03-27T16:25:54.185Z,48.16
2023-03-27T16:26:55.024Z,48.12
2023-03-27T16:27:54.169Z,48.20
2023-03-27T16:28:54.152Z,48.14
2023-03-27T16:29:54.147Z,48.16
2023-03-27T16:30:53.122Z,48.13
2023-03-27T16:31:53.181Z,48.14
2023-03-27T16:32:53.177Z,48.16
2023-03-27T16:33:54.116Z,48.18
2023-03-27T16:34:54.125Z,48.10
2023-03-27T16:35:54.134Z,48.17
2023-03-27T16:36:54.096Z,48.22
2023-03-27T16:37:54.104Z,48.21
2023-03-27T16:38:53.112Z,48.19
2023-03-27T16:39:54.056Z,48.15
2023-03-27T16:40:53.090Z,48.15
2023-03-27T16:41:53.056Z,48.15
2023-03-27T16:42:54.063Z,48.21
2023-03-27T16:43:54.121Z,48.21
2023-03-27T16:44:54.042Z,48.20
2023-03-27T16:45:54.086Z,48.17
2023-03-27T16:46:54.112Z,48.26
2023-03-27T16:47:54.816Z,48.23
2023-03-27T16:48:54.149Z,48.21
2023-03-27T16:50:07.995Z,48.24
2023-03-27T16:50:54.211Z,48.27
2023-03-27T16:51:54.167Z,48.25
2023-03-27T16:52:53.159Z,48.22
2023-03-27T16:53:53.154Z,48.26
2023-03-27T16:54:54.146Z,48.23
2023-03-27T16:55:54.178Z,48.24
2023-03-27T16:56:54.222Z,48.25
2023-03-27T16:57:54.184Z,48.21
2023-03-27T16:58:54.112Z,48.21
2023-03-27T16:59:54.093Z,48.18
2023-03-27T17:00:54.127Z,48.12
2023-03-27T17:01:54.122Z,48.23
2023-03-27T17:02:54.244Z,48.12
2023-03-27T17:03:54.215Z,48.11
2023-03-27T17:04:54.310Z,48.13
2023-03-27T17:05:53.303Z,48.08
2023-03-27T17:06:53.340Z,48.07
2023-03-27T17:07:54.425Z,48.08
2023-03-27T17:08:54.453Z,48.08
2023-03-27T17:09:53.510Z,48.05
2023-03-27T17:10:54.566Z,48.07
2023-03-27T17:11:54.640Z,48.07
2023-03-27T17:12:54.710Z,48.09
2023-03-27T17:13:54.798Z,48.10
2023-03-27T17:14:54.794Z,48.08
2023-03-27T17:15:53.861Z,48.12
2023-03-27T17:16:54.981Z,48.14
2023-03-27T17:17:55.021Z,48.13
2023-03-27T17:18:55.038Z,48.14
2023-03-27T17:19:55.196Z,48.13
2023-03-27T17:20:55.146Z,48.10
2023-03-27T17:21:55.197Z,48.11
2023-03-27T17:22:55.263Z,48.11
2023-03-27T17:23:54.368Z,48.15
2023-03-27T17:24:57.182Z,48.14
2023-03-27T17:25:54.529Z,48.03
2023-03-27T17:26:54.371Z,48.05
2023-03-27T17:27:55.368Z,48.17
2023-03-27T17:28:55.368Z,48.07
2023-03-27T17:29:55.399Z,48.04
2023-03-27T17:31:03.996Z,48.09
2023-03-27T17:31:55.374Z,47.99
2023-03-27T17:32:55.333Z,48.00
2023-03-27T17:33:55.322Z,48.03